Time;durP1;ratioP1;P1;durP2;ratioP2;P2;SDS_P1;SDS_P2;PMS_P1;PMS_P2;Temp;Humidity;BMP_temperature;BMP_pressure;BME280_temperature;BME280_humidity;BME280_pressure;Samples;Min_cycle;Max_cycle;Signal;HPM_P1;HPM_P2
2022/04/08 00:02:38;;;;;;;4.40;1.90;;;14.60;77.30;;;;;;10377668;28;20774;-82
2022/04/08 00:07:42;;;;;;;4.70;2.87;;;13.80;76.80;;;;;;10409590;28;20231;-82
2022/04/08 00:12:45;;;;;;;2.57;2.10;;;12.90;81.70;;;;;;10383894;28;20702;-82
2022/04/08 00:17:47;;;;;;;4.87;3.17;;;12.80;78.10;;;;;;10366773;28;20310;-82
2022/04/08 00:22:50;;;;;;;2.47;2.10;;;14.10;80.30;;;;;;10376711;28;20297;-82
2022/04/08 00:27:52;;;;;;;3.37;2.50;;;13.10;79.20;;;;;;10408301;28;20680;-82
2022/04/08 00:32:58;;;;;;;4.23;2.90;;;12.80;80.50;;;;;;10390830;28;20294;-82
2022/04/08 00:38:01;;;;;;;4.43;2.03;;;10.80;90.00;;;;;;10401615;28;20667;-82
2022/04/08 00:43:14;;;;;;;3.40;2.47;;;10.60;87.50;;;;;;10416067;28;20258;-82
2022/04/08 00:48:17;;;;;;;3.33;2.07;;;9.70;87.70;;;;;;10415883;28;20260;-83
2022/04/08 00:53:20;;;;;;;3.80;2.50;;;9.50;93.60;;;;;;10411477;28;20230;-82
2022/04/08 00:58:25;;;;;;;3.43;2.97;;;11.40;92.30;;;;;;10400077;28;20293;-82
2022/04/08 01:03:27;;;;;;;3.80;2.03;;;13.10;84.70;;;;;;10374770;28;20252;-82
2022/04/08 01:08:33;;;;;;;2.90;2.37;;;13.80;77.20;;;;;;10390640;28;20216;-82
2022/04/08 01:13:35;;;;;;;3.70;2.90;;;14.90;77.30;;;;;;10394507;28;20232;-82
2022/04/08 01:18:38;;;;;;;2.70;1.73;;;13.80;78.30;;;;;;10376484;28;20220;-83
2022/04/08 01:23:46;;;;;;;3.20;1.50;;;14.20;74.80;;;;;;10379504;28;20252;-82
2022/04/08 01:28:49;;;;;;;3.70;2.00;;;13.90;73.60;;;;;;10394459;28;20266;-82
2022/04/08 01:33:54;;;;;;;4.03;2.57;;;13.40;75.30;;;;;;10412794;28;20571;-82
2022/04/08 01:38:57;;;;;;;4.43;2.77;;;13.70;77.30;;;;;;10414472;28;20285;-82
2022/04/08 01:43:59;;;;;;;3.73;2.93;;;14.90;71.20;;;;;;10412448;28;20250;-82
2022/04/08 01:49:02;;;;;;;2.67;2.47;;;13.90;74.70;;;;;;10409048;28;20629;-82
2022/04/08 01:54:05;;;;;;;6.67;1.53;;;13.50;79.40;;;;;;10413324;28;20353;-82
2022/04/08 01:59:07;;;;;;;1.70;1.23;;;11.50;77.70;;;;;;10411008;28;20772;-82
2022/04/08 02:04:10;;;;;;;3.10;2.70;;;12.40;76.90;;;;;;10330438;28;20299;-82
2022/04/08 02:09:12;;;;;;;2.47;2.00;;;12.50;82.00;;;;;;10366603;28;20223;-82
2022/04/08 02:14:15;;;;;;;3.60;1.90;;;12.80;79.10;;;;;;10408726;28;20286;-82
2022/04/08 02:19:17;;;;;;;4.00;2.17;;;12.70;75.60;;;;;;10381291;28;20326;-82
2022/04/08 02:24:20;;;;;;;5.50;2.47;;;12.70;76.50;;;;;;10408765;28;20309;-82
2022/04/08 02:29:22;;;;;;;5.03;2.30;;;14.20;71.50;;;;;;10407457;28;20354;-82
2022/04/08 02:34:25;;;;;;;1.93;1.20;;;14.00;74.10;;;;;;10371107;28;20279;-82
2022/04/08 02:39:28;;;;;;;2.97;2.63;;;14.60;69.00;;;;;;10378267;28;20235;-82
2022/04/08 02:44:30;;;;;;;3.23;2.60;;;14.90;74.00;;;;;;10411452;28;20277;-82
2022/04/08 02:49:33;;;;;;;3.20;2.47;;;15.20;72.70;;;;;;10393643;28;20566;-82
2022/04/08 02:54:35;;;;;;;4.03;3.10;;;15.00;72.20;;;;;;10364427;28;20266;-81
2022/04/08 02:59:38;;;;;;;2.37;2.00;;;15.30;71.80;;;;;;10410165;28;20246;-82
2022/04/08 03:04:40;;;;;;;4.80;2.57;;;15.50;69.40;;;;;;10408992;28;20301;-81
2022/04/08 03:09:43;;;;;;;2.87;2.00;;;15.80;69.90;;;;;;10424943;28;20258;-82
2022/04/08 03:14:45;;;;;;;3.57;2.47;;;15.70;68.80;;;;;;10383201;28;20382;-82
2022/04/08 03:19:48;;;;;;;2.53;2.33;;;15.40;70.70;;;;;;10377129;28;20322;-82
2022/04/08 03:24:51;;;;;;;2.60;2.37;;;15.70;67.60;;;;;;10373445;28;20666;-82
2022/04/08 03:29:54;;;;;;;2.27;2.07;;;15.40;70.40;;;;;;10409488;28;20281;-82
2022/04/08 03:34:59;;;;;;;2.60;2.30;;;15.70;67.50;;;;;;10410110;28;20191;-82
2022/04/08 03:40:02;;;;;;;2.97;2.37;;;15.10;71.30;;;;;;10406138;28;20231;-82
2022/04/08 03:45:05;;;;;;;2.93;2.20;;;15.50;70.10;;;;;;10391342;28;20278;-82
2022/04/08 03:50:08;;;;;;;5.50;2.70;;;15.40;70.10;;;;;;10382441;28;20216;-81
2022/04/08 03:55:11;;;;;;;3.60;2.53;;;15.40;70.30;;;;;;10364724;28;20232;-82
2022/04/08 04:00:14;;;;;;;1.73;1.60;;;15.40;70.20;;;;;;10357632;28;20279;-82
2022/04/08 04:05:16;;;;;;;2.37;2.00;;;15.50;69.40;;;;;;10368679;28;21008;-82
2022/04/08 04:10:19;;;;;;;2.60;2.37;;;15.40;69.30;;;;;;10365951;28;20596;-82
2022/04/08 04:15:21;;;;;;;2.13;1.93;;;15.30;69.80;;;;;;10372009;28;20271;-82
2022/04/08 04:20:24;;;;;;;2.63;1.70;;;15.40;69.50;;;;;;10375671;28;20638;-82
2022/04/08 04:25:28;;;;;;;2.13;1.97;;;14.60;69.60;;;;;;10391425;28;20251;-82
2022/04/08 04:30:31;;;;;;;1.87;1.67;;;15.40;69.20;;;;;;10375653;28;20200;-82
2022/04/08 04:35:35;;;;;;;2.87;1.47;;;15.40;69.10;;;;;;10386538;28;20767;-82
2022/04/08 04:40:38;;;;;;;2.80;1.80;;;15.40;68.70;;;;;;10397266;28;20227;-82
2022/04/08 04:45:41;;;;;;;5.77;1.70;;;15.50;68.60;;;;;;10375057;28;20251;-82
2022/04/08 04:50:43;;;;;;;2.37;2.03;;;15.40;68.50;;;;;;10380685;28;20251;-82
2022/04/08 04:55:46;;;;;;;2.97;2.30;;;15.40;68.50;;;;;;10401664;28;20239;-80
2022/04/08 05:00:48;;;;;;;1.83;1.30;;;15.40;68.50;;;;;;10384770;28;20235;-80
2022/04/08 05:05:53;;;;;;;2.07;1.73;;;15.50;68.10;;;;;;10373116;28;20252;-80
2022/04/08 05:10:55;;;;;;;2.03;0.80;;;15.40;68.40;;;;;;10383697;28;20647;-80
2022/04/08 05:15:58;;;;;;;1.83;0.87;;;13.70;68.20;;;;;;10371322;28;20270;-80
2022/04/08 05:21:01;;;;;;;3.63;1.00;;;14.40;66.70;;;;;;10371244;28;20283;-80
2022/04/08 05:26:03;;;;;;;4.77;1.53;;;15.10;65.10;;;;;;10373235;28;20239;-80
2022/04/08 05:31:06;;;;;;;2.00;1.53;;;15.00;65.90;;;;;;10395291;28;20250;-80
2022/04/08 05:36:08;;;;;;;1.20;1.10;;;15.30;65.10;;;;;;10408149;28;20231;-81
2022/04/08 05:41:11;;;;;;;1.40;0.97;;;14.90;66.00;;;;;;10413209;28;20231;-80
2022/04/08 05:46:14;;;;;;;1.30;1.03;;;15.30;66.00;;;;;;10407180;28;20674;-80
2022/04/08 05:51:17;;;;;;;1.33;1.20;;;15.00;66.40;;;;;;10387992;28;20220;-80
2022/04/08 05:56:36;;;;;;;1.40;1.00;;;14.80;67.10;;;;;;10371137;28;20266;-80
2022/04/08 06:01:39;;;;;;;3.40;1.43;;;14.90;64.00;;;;;;10380384;28;20216;-80
2022/04/08 06:06:43;;;;;;;2.53;1.73;;;15.00;64.10;;;;;;10388928;28;20252;-80
2022/04/08 06:11:46;;;;;;;1.67;1.13;;;14.70;66.60;;;;;;10385672;28;20243;-80
2022/04/08 06:16:49;;;;;;;1.60;1.00;;;15.40;65.70;;;;;;10420583;28;20235;-80
2022/04/08 06:21:52;;;;;;;2.20;1.60;;;15.20;65.80;;;;;;10368579;28;20288;-80
2022/04/08 06:26:54;;;;;;;2.63;1.50;;;15.10;66.50;;;;;;10386013;28;20667;-80
2022/04/08 06:31:58;;;;;;;1.50;1.40;;;15.20;66.40;;;;;;10371022;28;20232;-80
2022/04/08 06:37:00;;;;;;;1.50;1.40;;;15.00;66.60;;;;;;10384548;28;20283;-79
2022/04/08 06:42:03;;;;;;;2.43;1.53;;;15.20;66.60;;;;;;10393239;28;20276;-81
2022/04/08 06:47:06;;;;;;;1.90;1.30;;;15.20;66.80;;;;;;10410608;28;20258;-81
2022/04/08 06:52:09;;;;;;;1.43;1.23;;;14.60;68.40;;;;;;10409510;28;20227;-82
2022/04/08 06:57:12;;;;;;;1.57;1.37;;;15.00;67.90;;;;;;10408038;28;20231;-81
2022/04/08 07:02:15;;;;;;;1.57;1.47;;;15.50;66.80;;;;;;10405631;28;20227;-83
2022/04/08 07:07:17;;;;;;;0.83;0.60;;;15.50;66.60;;;;;;10388222;28;20277;-82
2022/04/08 07:12:20;;;;;;;1.57;0.67;;;13.90;70.30;;;;;;10411037;28;20546;-82
2022/04/08 07:17:33;;;;;;;0.70;0.63;;;13.80;71.30;;;;;;10405720;28;20704;-80
2022/04/08 07:22:52;;;;;;;1.50;0.90;;;13.00;73.70;;;;;;10392876;28;20211;-81
2022/04/08 07:27:58;;;;;;;1.33;0.80;;;12.50;79.60;;;;;;10424996;28;20247;-80
2022/04/08 07:33:03;;;;;;;1.60;0.80;;;13.50;93.00;;;;;;10407024;28;20236;-81
2022/04/08 07:38:05;;;;;;;1.03;0.93;;;14.00;96.50;;;;;;10351781;28;20227;-81
2022/04/08 07:43:08;;;;;;;3.40;1.10;;;12.90;99.90;;;;;;10366680;28;20655;-80
2022/04/08 07:48:11;;;;;;;2.10;1.37;;;13.10;99.90;;;;;;10380657;28;20309;-81
2022/04/08 07:53:13;;;;;;;1.63;1.37;;;14.20;99.90;;;;;;10365986;28;20263;-80
2022/04/08 07:58:16;;;;;;;3.43;1.50;;;13.80;99.90;;;;;;10366092;28;20289;-80
2022/04/08 08:03:19;;;;;;;1.07;0.80;;;15.10;99.90;;;;;;10365222;28;20699;-81
2022/04/08 08:08:22;;;;;;;2.63;1.07;;;13.30;89.30;;;;;;10365410;28;20312;-81
2022/04/08 08:13:24;;;;;;;3.00;0.93;;;13.40;85.10;;;;;;10366118;28;20309;-81
2022/04/08 08:18:27;;;;;;;2.60;1.27;;;13.80;86.30;;;;;;10364198;28;20277;-81
2022/04/08 08:23:29;;;;;;;1.13;1.03;;;13.50;86.10;;;;;;10347183;28;20312;-81
2022/04/08 08:28:32;;;;;;;4.43;1.20;;;10.60;91.70;;;;;;10365201;28;20814;-81
2022/04/08 08:33:34;;;;;;;3.50;1.30;;;13.40;88.20;;;;;;10366499;28;20232;-81
2022/04/08 08:38:37;;;;;;;1.67;1.27;;;14.40;93.60;;;;;;10367436;28;20737;-81
2022/04/08 08:43:39;;;;;;;3.13;1.40;;;13.90;98.90;;;;;;10364320;28;20260;-81
2022/04/08 08:48:44;;;;;;;2.40;1.40;;;14.40;99.90;;;;;;10364211;28;20232;-81
2022/04/08 08:53:46;;;;;;;2.07;0.90;;;16.40;97.70;;;;;;10363145;28;20604;-81
2022/04/08 08:58:48;;;;;;;5.07;1.33;;;14.40;77.90;;;;;;10356041;28;20290;-81
2022/04/08 09:03:51;;;;;;;1.50;1.40;;;15.20;99.90;;;;;;10368627;28;20255;-81
2022/04/08 09:08:56;;;;;;;1.83;0.97;;;15.50;99.90;;;;;;10369980;28;20246;-81
2022/04/08 09:14:04;;;;;;;3.63;1.10;;;15.20;80.70;;;;;;10352428;28;20663;-81
2022/04/08 09:19:10;;;;;;;3.20;1.10;;;15.70;98.80;;;;;;10329845;28;20319;-81
2022/04/08 09:24:13;;;;;;;2.37;1.73;;;14.80;99.90;;;;;;10377041;28;20259;-81
2022/04/08 09:29:16;;;;;;;2.63;1.07;;;16.00;86.70;;;;;;10368761;28;20694;-81
2022/04/08 09:34:20;;;;;;;3.37;1.77;;;14.80;99.90;;;;;;10370272;28;20236;-81
2022/04/08 09:39:22;;;;;;;0.50;0.50;;;16.50;98.20;;;;;;10370456;28;20617;-81
2022/04/08 09:44:26;;;;;;;3.07;1.70;;;15.10;84.70;;;;;;10370604;28;20327;-81
2022/04/08 09:49:28;;;;;;;1.33;0.87;;;16.10;99.90;;;;;;10370048;28;20232;-80
2022/04/08 09:54:33;;;;;;;1.77;1.17;;;13.10;78.20;;;;;;10370126;28;20239;-80
2022/04/08 09:59:38;;;;;;;3.37;1.50;;;7.70;93.90;;;;;;10370794;28;20237;-80
2022/04/08 10:04:57;;;;;;;3.80;1.40;;;;;;;;;;10371127;28;20669;-80
2022/04/08 10:10:12;;;;;;;1.70;1.60;;;5.90;99.90;;;;;;10370949;28;20254;-79
2022/04/08 10:15:31;;;;;;;2.50;1.90;;;6.10;99.90;;;;;;10369723;28;20796;-80
2022/04/08 10:20:37;;;;;;;1.97;1.70;;;8.30;99.90;;;;;;10369320;28;20322;-80
2022/04/08 10:25:48;;;;;;;1.87;1.67;;;9.60;99.90;;;;;;10352110;28;20275;-79
2022/04/08 10:30:54;;;;;;;2.53;1.00;;;9.30;99.90;;;;;;10369719;28;20666;-80
2022/04/08 10:36:04;;;;;;;2.03;1.33;;;11.70;99.90;;;;;;10369811;28;20227;-80
2022/04/08 10:41:11;;;;;;;2.10;1.90;;;9.40;99.90;;;;;;10368672;28;20229;-80
2022/04/08 10:46:13;;;;;;;2.77;1.30;;;9.30;99.90;;;;;;10366109;28;20254;-80
2022/04/08 10:51:18;;;;;;;1.37;1.03;;;12.70;99.90;;;;;;10369094;28;20228;-79
2022/04/08 10:56:20;;;;;;;2.77;1.57;;;13.50;99.40;;;;;;10370057;28;20600;-79
2022/04/08 11:01:25;;;;;;;2.53;1.40;;;15.90;99.90;;;;;;10368720;28;20235;-80
2022/04/08 11:06:29;;;;;;;2.20;1.47;;;16.00;91.60;;;;;;10367839;28;20256;-80
2022/04/08 11:11:37;;;;;;;1.70;1.50;;;14.90;99.90;;;;;;10367542;28;20684;-81
2022/04/08 11:16:41;;;;;;;1.40;1.07;;;14.20;99.90;;;;;;10360947;28;20322;-80
2022/04/08 11:21:43;;;;;;;2.40;1.60;;;14.00;95.10;;;;;;10365450;28;20633;-81
2022/04/08 11:26:50;;;;;;;1.70;1.60;;;;;;;;;;10365904;28;20264;-80
2022/04/08 11:32:09;;;;;;;2.97;1.50;;;15.70;99.90;;;;;;10368512;28;20236;-80
2022/04/08 11:37:12;;;;;;;3.37;1.70;;;15.40;99.90;;;;;;10340046;28;20283;-81
2022/04/08 11:42:20;;;;;;;3.83;1.70;;;15.90;99.40;;;;;;10364080;28;20267;-82
2022/04/08 11:47:32;;;;;;;3.40;1.27;;;16.60;97.80;;;;;;10365414;28;20256;-81
2022/04/08 11:52:38;;;;;;;1.30;1.20;;;13.70;71.00;;;;;;10363882;28;20231;-81
2022/04/08 11:57:41;;;;;;;2.30;1.50;;;13.90;99.90;;;;;;10364942;28;20625;-81
2022/04/08 12:02:43;;;;;;;3.27;1.60;;;15.10;97.20;;;;;;10365979;28;20240;-81
2022/04/08 12:07:48;;;;;;;2.63;1.77;;;16.30;96.60;;;;;;10356298;28;20307;-81
2022/04/08 12:12:51;;;;;;;2.10;1.80;;;16.50;96.40;;;;;;10363594;28;20232;-81
2022/04/08 12:17:55;;;;;;;4.90;1.13;;;16.50;95.80;;;;;;10365874;28;20304;-80
2022/04/08 12:22:59;;;;;;;4.97;1.60;;;15.10;93.50;;;;;;10364916;28;20258;-82
2022/04/08 12:28:02;;;;;;;4.13;1.80;;;12.90;74.80;;;;;;10351641;28;20317;-82
2022/04/08 12:33:12;;;;;;;2.50;0.77;;;14.20;79.90;;;;;;10371257;28;20335;-82
2022/04/08 12:38:19;;;;;;;4.30;1.80;;;15.00;80.50;;;;;;10377380;28;20781;-82
2022/04/08 12:43:22;;;;;;;2.73;1.40;;;15.40;78.20;;;;;;10379658;28;20540;-81
2022/04/08 12:48:24;;;;;;;3.00;1.40;;;15.10;72.90;;;;;;10358084;28;20263;-81
2022/04/08 12:53:29;;;;;;;3.80;1.50;;;14.70;78.30;;;;;;10376532;28;20615;-81
2022/04/08 12:58:31;;;;;;;3.53;1.50;;;13.60;81.30;;;;;;10372605;28;20290;-81
2022/04/08 13:03:34;;;;;;;7.60;1.77;;;13.90;77.00;;;;;;10375476;28;20329;-82
2022/04/08 13:08:36;;;;;;;5.50;1.90;;;14.30;78.10;;;;;;10375184;28;20256;-81
2022/04/08 13:13:39;;;;;;;5.37;2.10;;;15.60;79.70;;;;;;10374250;28;20243;-81
2022/04/08 13:18:42;;;;;;;3.33;1.77;;;15.70;77.60;;;;;;10373230;28;20716;-81
2022/04/08 13:23:45;;;;;;;3.77;1.80;;;15.80;78.60;;;;;;10356405;28;20274;-81
2022/04/08 13:28:47;;;;;;;2.90;1.70;;;15.10;79.50;;;;;;10373708;28;20259;-81
2022/04/08 13:33:50;;;;;;;2.47;1.57;;;15.80;68.10;;;;;;10373028;28;20235;-81
2022/04/08 13:38:52;;;;;;;3.47;2.20;;;15.60;66.90;;;;;;10372179;28;20294;-81
2022/04/08 13:43:54;;;;;;;3.50;2.30;;;15.50;78.90;;;;;;10374048;28;20240;-81
2022/04/08 13:48:57;;;;;;;4.53;2.30;;;15.50;72.00;;;;;;10372950;28;20314;-81
2022/04/08 13:54:00;;;;;;;3.03;2.23;;;15.70;77.60;;;;;;10373296;28;20250;-81
2022/04/08 13:59:02;;;;;;;2.13;1.93;;;15.80;77.00;;;;;;10372536;28;20298;-80
2022/04/08 14:04:10;;;;;;;5.80;2.60;;;15.70;76.70;;;;;;10371385;28;20236;-81
2022/04/08 14:09:12;;;;;;;8.20;2.47;;;15.50;72.30;;;;;;10373022;28;20333;-81
2022/04/08 14:14:15;;;;;;;3.70;1.57;;;15.50;77.70;;;;;;10370720;28;20267;-81
2022/04/08 14:19:17;;;;;;;4.40;2.40;;;14.20;63.70;;;;;;10371988;28;20263;-81
2022/04/08 14:24:20;;;;;;;5.37;1.90;;;15.20;79.30;;;;;;10369668;28;20251;-80
2022/04/08 14:29:22;;;;;;;3.03;2.33;;;14.60;73.50;;;;;;10371772;28;20305;-81
2022/04/08 14:34:25;;;;;;;3.97;2.60;;;15.50;78.00;;;;;;10372194;28;20655;-81
2022/04/08 14:39:29;;;;;;;5.00;2.10;;;15.20;75.40;;;;;;10371786;28;20290;-81
2022/04/08 14:44:32;;;;;;;3.67;2.60;;;15.00;75.30;;;;;;10369419;28;20282;-81
2022/04/08 14:49:34;;;;;;;2.30;2.10;;;14.80;78.20;;;;;;10369466;28;20236;-81
2022/04/08 14:54:37;;;;;;;3.30;1.80;;;15.30;75.80;;;;;;10369285;28;20288;-81
2022/04/08 14:59:39;;;;;;;5.73;2.70;;;12.70;66.20;;;;;;10369649;28;20228;-81
2022/04/08 15:04:42;;;;;;;4.90;1.97;;;13.30;82.10;;;;;;10368906;28;20248;-81
2022/04/08 15:09:44;;;;;;;2.03;1.83;;;14.20;74.30;;;;;;10368572;28;20204;-81
2022/04/08 15:14:50;;;;;;;7.47;3.03;;;14.30;79.90;;;;;;10369690;28;20670;-81
2022/04/08 15:19:52;;;;;;;6.43;2.53;;;13.90;73.10;;;;;;10369571;28;20290;-81
2022/04/08 15:24:55;;;;;;;2.90;2.40;;;14.80;69.60;;;;;;10368048;28;20244;-81
2022/04/08 15:29:57;;;;;;;2.60;2.00;;;15.00;75.00;;;;;;10366872;28;20685;-81
2022/04/08 15:35:00;;;;;;;5.90;1.40;;;15.20;77.20;;;;;;10349255;28;20227;-81
2022/04/08 15:40:03;;;;;;;10.30;3.13;;;14.70;63.20;;;;;;10393251;23;20310;-88
2022/04/08 15:45:07;;;;;;;18.73;4.00;;;13.40;65.80;;;;;;10368322;28;20310;-88
2022/04/08 15:50:10;;;;;;;6.93;2.37;;;15.30;74.40;;;;;;10377315;28;20285;-88
2022/04/08 15:55:12;;;;;;;10.87;2.80;;;15.90;66.90;;;;;;10408118;28;20230;-88
2022/04/08 16:00:15;;;;;;;8.70;2.37;;;15.90;74.70;;;;;;10381399;28;20204;-89
2022/04/08 16:05:18;;;;;;;7.90;3.27;;;14.90;72.50;;;;;;10361669;28;20306;-88
2022/04/08 16:10:20;;;;;;;5.13;2.30;;;16.00;75.60;;;;;;10400238;28;20250;-89
2022/04/08 16:15:23;;;;;;;5.33;3.20;;;16.40;61.00;;;;;;10425682;28;20624;-88
2022/04/08 16:20:26;;;;;;;4.67;2.67;;;16.20;75.90;;;;;;10357117;28;20231;-87
2022/04/08 16:25:28;;;;;;;5.40;3.07;;;16.40;77.10;;;;;;10395462;28;20247;-87
2022/04/08 16:30:31;;;;;;;4.20;2.53;;;16.90;75.50;;;;;;10328047;28;20587;-88
2022/04/08 16:35:34;;;;;;;9.23;3.60;;;15.90;74.70;;;;;;10380250;28;20913;-87
2022/04/08 16:40:37;;;;;;;7.00;3.40;;;15.40;73.20;;;;;;10407844;28;20642;-87
2022/04/08 16:45:41;;;;;;;7.23;3.37;;;15.50;79.00;;;;;;10388047;28;20224;-88
2022/04/08 16:50:44;;;;;;;8.93;2.77;;;15.10;77.00;;;;;;10368999;28;20252;-87
2022/04/08 16:55:47;;;;;;;6.90;2.63;;;14.60;63.20;;;;;;10367529;28;20678;-87
2022/04/08 17:00:49;;;;;;;6.47;3.30;;;14.90;66.70;;;;;;10392266;28;20640;-88
2022/04/08 17:05:52;;;;;;;10.10;4.10;;;12.00;63.00;;;;;;10383947;28;20212;-88
2022/04/08 17:10:56;;;;;;;18.60;9.93;;;11.40;64.40;;;;;;10365623;28;20455;-88
2022/04/08 17:15:59;;;;;;;7.53;3.90;;;10.40;71.10;;;;;;10364190;28;20638;-87
2022/04/08 17:21:01;;;;;;;21.97;11.03;;;11.10;96.40;;;;;;10365173;28;20749;-88
2022/04/08 17:26:04;;;;;;;24.50;12.57;;;13.20;68.10;;;;;;10372739;28;20247;-88
2022/04/08 17:31:07;;;;;;;13.97;6.67;;;10.50;68.20;;;;;;10373813;28;20220;-87
2022/04/08 17:36:10;;;;;;;6.23;4.27;;;12.20;85.60;;;;;;10371122;28;20224;-88
2022/04/08 17:41:13;;;;;;;9.90;5.20;;;12.40;97.00;;;;;;10383793;28;20232;-87
2022/04/08 17:46:15;;;;;;;13.80;7.23;;;11.90;91.60;;;;;;10369054;28;20264;-88
2022/04/08 17:51:18;;;;;;;7.53;4.43;;;13.30;76.90;;;;;;10362569;28;20298;-86
2022/04/08 17:56:21;;;;;;;7.07;5.00;;;12.60;95.30;;;;;;10399125;28;20243;-87
2022/04/08 18:01:27;;;;;;;7.20;4.03;;;15.00;82.30;;;;;;10397723;28;20196;-89
2022/04/08 18:06:30;;;;;;;20.90;8.90;;;13.60;87.70;;;;;;10383411;28;20294;-86
2022/04/08 18:11:33;;;;;;;16.57;9.10;;;11.10;66.20;;;;;;10381495;28;20663;-86
2022/04/08 18:16:35;;;;;;;17.20;8.40;;;10.50;69.00;;;;;;10372455;28;20270;-86
2022/04/08 18:21:38;;;;;;;13.93;7.50;;;8.70;74.60;;;;;;10372515;28;20233;-86
2022/04/08 18:26:40;;;;;;;13.00;7.33;;;7.80;77.50;;;;;;10371369;28;20257;-86
2022/04/08 18:31:43;;;;;;;17.50;9.73;;;7.40;79.60;;;;;;10392010;28;20220;-86
2022/04/08 18:36:46;;;;;;;21.40;9.27;;;7.10;81.10;;;;;;10427527;28;20228;-85
2022/04/08 18:41:48;;;;;;;48.27;19.83;;;6.80;84.70;;;;;;10410809;28;20701;-86
2022/04/08 18:46:52;;;;;;;50.10;22.37;;;6.50;88.00;;;;;;10404650;28;20662;-87
2022/04/08 18:51:55;;;;;;;33.60;15.57;;;6.30;90.70;;;;;;10373653;28;20208;-87
2022/04/08 18:56:58;;;;;;;27.47;13.30;;;6.10;91.40;;;;;;10385097;28;20200;-92
2022/04/08 19:02:03;;;;;;;39.37;20.17;;;7.10;93.30;;;;;;10397675;28;20241;-90
2022/04/08 19:07:06;;;;;;;40.77;20.40;;;6.00;94.30;;;;;;10407062;28;20223;-92
2022/04/08 19:12:11;;;;;;;46.00;23.83;;;5.70;96.80;;;;;;10382582;28;20223;-92
2022/04/08 19:17:14;;;;;;;56.93;27.63;;;5.30;97.90;;;;;;10372494;28;20208;-92
2022/04/08 19:22:17;;;;;;;61.40;31.10;;;5.10;99.60;;;;;;10373643;28;20208;-92
2022/04/08 19:27:19;;;;;;;61.43;30.63;;;4.90;99.90;;;;;;10353296;28;20227;-91
2022/04/08 19:32:24;;;;;;;58.97;28.27;;;4.80;99.90;;;;;;10325356;28;20555;-93
2022/04/08 19:37:26;;;;;;;53.63;27.60;;;4.50;99.90;;;;;;10347473;28;20240;-95
2022/04/08 19:42:29;;;;;;;61.00;29.07;;;4.30;99.90;;;;;;10349873;28;20205;-95
2022/04/08 19:47:33;;;;;;;60.03;30.93;;;4.20;99.90;;;;;;10316086;28;20217;-95
2022/04/08 19:52:37;;;;;;;59.10;30.57;;;3.70;99.90;;;;;;10371384;28;20259;-95
2022/04/08 19:57:39;;;;;;;60.77;30.57;;;3.70;99.90;;;;;;10355207;28;20573;-94
2022/04/08 20:02:42;;;;;;;68.80;34.77;;;;;;;;;;10394469;28;20270;-95
2022/04/08 20:07:45;;;;;;;76.80;39.60;;;;;;;;;;10376922;28;20574;-95
2022/04/08 20:12:48;;;;;;;76.37;37.23;;;3.40;99.90;;;;;;10376094;28;20223;-95
2022/04/08 20:17:51;;;;;;;73.90;37.80;;;3.30;99.90;;;;;;10006758;28;9999921;-94
2022/04/08 20:22:56;;;;;;;86.63;41.50;;;3.20;99.90;;;;;;10377115;28;20200;-94
2022/04/08 20:28:00;;;;;;;92.13;42.27;;;3.20;99.90;;;;;;10388282;28;20261;-94
2022/04/08 20:33:03;;;;;;;78.90;40.03;;;3.20;99.90;;;;;;10343545;28;20209;-95
2022/04/08 20:38:06;;;;;;;80.30;40.90;;;3.00;99.90;;;;;;10378305;28;20233;-96
2022/04/08 20:43:08;;;;;;;67.77;38.57;;;2.70;99.90;;;;;;10377843;28;20631;-93
2022/04/08 20:48:11;;;;;;;75.13;39.33;;;2.30;99.90;;;;;;10359414;28;20228;-93
2022/04/08 20:53:16;;;;;;;78.63;39.13;;;2.30;99.90;;;;;;10376142;28;20776;-91
2022/04/08 20:58:19;;;;;;;95.13;42.03;;;2.10;99.90;;;;;;10415206;28;20208;-91
2022/04/08 21:03:21;;;;;;;78.23;39.23;;;1.90;99.90;;;;;;10422971;28;20216;-93
2022/04/08 21:08:24;;;;;;;74.00;39.53;;;1.90;99.90;;;;;;10405337;28;20255;-93
2022/04/08 21:13:26;;;;;;;84.27;40.10;;;2.00;99.90;;;;;;10434813;28;20223;-92
2022/04/08 21:18:32;;;;;;;79.23;42.10;;;1.80;99.90;;;;;;10455336;28;20184;-92
2022/04/08 21:23:34;;;;;;;107.57;48.53;;;1.90;99.90;;;;;;10452705;28;20200;-93
2022/04/08 21:28:37;;;;;;;118.80;50.10;;;2.20;99.90;;;;;;10394760;28;20232;-95
2022/04/08 21:33:39;;;;;;;106.73;47.67;;;2.00;99.90;;;;;;10463969;28;20176;-92
2022/04/08 21:38:42;;;;;;;87.93;39.97;;;2.00;99.90;;;;;;10460019;28;20548;-92
2022/04/08 21:43:44;;;;;;;93.17;40.73;;;2.10;99.90;;;;;;10428047;28;20181;-92
2022/04/08 21:48:47;;;;;;;96.27;42.77;;;2.20;99.90;;;;;;10428198;28;20235;-92
2022/04/08 21:53:50;;;;;;;76.70;35.17;;;2.10;99.90;;;;;;10438322;28;20168;-92
2022/04/08 21:58:52;;;;;;;76.30;36.53;;;2.30;99.90;;;;;;10465572;28;20183;-92
2022/04/08 22:03:55;;;;;;;75.97;36.47;;;2.40;99.90;;;;;;10447816;28;20218;-93
2022/04/08 22:08:58;;;;;;;77.07;36.23;;;2.40;99.90;;;;;;10408511;28;20278;-92
2022/04/08 22:14:01;;;;;;;71.20;37.07;;;2.30;99.90;;;;;;10376534;28;20204;-92
2022/04/08 22:19:03;;;;;;;78.07;36.10;;;2.30;99.90;;;;;;10412497;28;20669;-93
2022/04/08 22:24:06;;;;;;;74.17;36.00;;;2.40;99.90;;;;;;10419252;28;20753;-92
2022/04/08 22:29:09;;;;;;;77.30;37.17;;;2.30;99.90;;;;;;10384153;28;20228;-92
2022/04/08 22:34:11;;;;;;;64.43;35.60;;;2.30;99.90;;;;;;10431964;28;20246;-93
2022/04/08 22:39:14;;;;;;;63.20;32.00;;;2.30;99.90;;;;;;10419179;28;20227;-93
2022/04/08 22:44:16;;;;;;;62.60;31.00;;;2.20;99.90;;;;;;10418313;28;20208;-93
2022/04/08 22:49:19;;;;;;;63.77;32.23;;;2.00;99.90;;;;;;10392077;28;20216;-93
2022/04/08 22:54:21;;;;;;;73.60;35.67;;;2.00;99.90;;;;;;10406364;28;20245;-93
2022/04/08 22:59:24;;;;;;;78.53;39.70;;;1.90;99.90;;;;;;10416048;28;20265;-92
2022/04/08 23:04:27;;;;;;;62.03;33.10;;;1.80;99.90;;;;;;10384598;28;20208;-92
2022/04/08 23:09:29;;;;;;;67.90;33.77;;;1.70;99.90;;;;;;10400963;28;20215;-92
2022/04/08 23:14:32;;;;;;;64.27;31.13;;;1.70;99.90;;;;;;10412927;28;20751;-92
2022/04/08 23:19:34;;;;;;;60.83;30.20;;;1.80;99.90;;;;;;10379326;28;20616;-92
2022/04/08 23:24:37;;;;;;;53.13;28.07;;;1.60;99.90;;;;;;10396794;28;20205;-91
2022/04/08 23:29:42;;;;;;;59.70;27.90;;;1.70;99.90;;;;;;10369241;28;20255;-91
2022/04/08 23:34:45;;;;;;;48.27;27.07;;;1.70;99.90;;;;;;10369210;28;20224;-91
2022/04/08 23:39:48;;;;;;;50.17;26.07;;;1.70;99.90;;;;;;10408226;28;20705;-91
2022/04/08 23:44:50;;;;;;;51.70;26.90;;;1.60;99.90;;;;;;10408354;28;20208;-91
2022/04/08 23:49:53;;;;;;;47.87;26.13;;;1.60;99.90;;;;;;10372456;28;20220;-91
2022/04/08 23:54:56;;;;;;;53.73;26.83;;;1.70;99.90;;;;;;10369233;28;20255;-90
2022/04/08 23:59:58;;;;;;;45.87;24.07;;;1.80;99.90;;;;;;10367263;28;20569;-91
